createdAt,value
2019-03-27T00:00:10.498Z,14.77
2019-03-27T00:05:18.031Z,12.63
2019-03-27T00:10:24.133Z,15.50
2019-03-27T00:15:29.928Z,12.80
2019-03-27T00:20:35.634Z,14.20
2019-03-27T00:25:42.354Z,11.77
2019-03-27T00:30:48.264Z,14.70
2019-03-27T00:35:53.960Z,12.33
2019-03-27T00:40:59.659Z,15.00
2019-03-27T00:46:06.202Z,16.50
2019-03-27T00:51:12.014Z,13.20
2019-03-27T00:56:17.969Z,16.20
2019-03-27T01:01:23.677Z,13.27
2019-03-27T01:06:29.456Z,13.67
2019-03-27T01:11:35.249Z,16.87
2019-03-27T01:16:41.133Z,15.17
2019-03-27T01:21:46.837Z,13.40
2019-03-27T01:26:52.534Z,15.07
2019-03-27T01:31:58.635Z,12.93
2019-03-27T01:37:04.820Z,13.90
2019-03-27T01:42:11.500Z,14.10
2019-03-27T01:47:18.322Z,15.33
2019-03-27T01:52:24.257Z,18.87
2019-03-27T01:57:29.955Z,14.23
2019-03-27T02:02:36.108Z,14.23
2019-03-27T02:07:42.118Z,14.33
2019-03-27T02:12:48.257Z,14.50
2019-03-27T02:17:53.980Z,15.20
2019-03-27T02:22:59.678Z,12.83
2019-03-27T02:28:05.374Z,14.17
2019-03-27T02:33:11.076Z,13.03
2019-03-27T02:38:17.175Z,14.83
2019-03-27T02:43:23.174Z,15.87
2019-03-27T02:48:29.283Z,16.97
2019-03-27T02:53:35.380Z,15.87
2019-03-27T02:58:41.397Z,18.47
2019-03-27T03:03:47.282Z,16.20
2019-03-27T03:08:53.144Z,16.30
2019-03-27T03:13:58.859Z,19.43
2019-03-27T03:19:04.942Z,16.63
2019-03-27T03:24:10.723Z,15.90
2019-03-27T03:29:16.555Z,16.33
2019-03-27T03:34:23.172Z,15.37
2019-03-27T03:39:28.893Z,15.10
2019-03-27T03:44:36.167Z,16.03
2019-03-27T03:49:42.949Z,15.47
2019-03-27T03:54:50.700Z,13.77
2019-03-27T03:59:57.827Z,17.37
2019-03-27T04:05:05.901Z,12.43
2019-03-27T04:10:11.813Z,17.33
2019-03-27T04:15:18.069Z,14.13
2019-03-27T04:20:23.783Z,14.70
2019-03-27T04:25:29.602Z,16.77
2019-03-27T04:30:35.416Z,15.93
2019-03-27T04:35:41.122Z,16.43
2019-03-27T04:40:46.846Z,10.90
2019-03-27T04:45:52.967Z,13.83
2019-03-27T04:50:58.693Z,16.30
2019-03-27T04:56:04.419Z,17.80
2019-03-27T05:01:10.173Z,16.50
2019-03-27T05:06:15.964Z,15.77
2019-03-27T05:11:22.571Z,15.30
2019-03-27T05:16:29.259Z,13.50
2019-03-27T05:21:34.991Z,13.17
2019-03-27T05:26:41.185Z,13.83
2019-03-27T05:31:46.900Z,16.10
2019-03-27T05:36:52.849Z,16.23
2019-03-27T05:41:58.571Z,13.27
2019-03-27T05:47:04.298Z,18.13
2019-03-27T05:52:10.134Z,11.80
2019-03-27T05:57:15.829Z,15.30
2019-03-27T06:02:21.560Z,14.90
2019-03-27T06:07:27.301Z,13.90
2019-03-27T06:12:33.056Z,16.37
2019-03-27T06:17:38.776Z,15.50
2019-03-27T06:22:44.813Z,17.77
2019-03-27T06:27:50.613Z,13.53
2019-03-27T06:32:56.329Z,13.80
2019-03-27T06:38:02.541Z,12.23
2019-03-27T06:43:08.815Z,12.77
2019-03-27T06:48:25.721Z,17.80
2019-03-27T06:53:23.046Z,14.10
2019-03-27T06:58:28.761Z,17.37
2019-03-27T07:03:34.890Z,15.10
2019-03-27T07:08:40.644Z,14.00
2019-03-27T07:13:46.365Z,15.13
2019-03-27T07:18:52.279Z,15.97
2019-03-27T07:23:58.332Z,17.23
2019-03-27T07:29:04.062Z,15.47
2019-03-27T07:34:10.168Z,16.80
2019-03-27T07:39:16.376Z,10.90
2019-03-27T07:44:22.089Z,16.43
2019-03-27T07:49:27.901Z,17.40
2019-03-27T07:54:34.380Z,11.97
2019-03-27T07:59:40.421Z,14.03
2019-03-27T08:04:46.306Z,11.33
2019-03-27T08:09:52.072Z,11.27
2019-03-27T08:14:57.794Z,12.93
2019-03-27T08:20:04.145Z,10.47
2019-03-27T08:25:12.554Z,9.33
2019-03-27T08:30:18.470Z,13.80
2019-03-27T08:35:24.189Z,10.97
2019-03-27T08:40:30.050Z,12.17
2019-03-27T08:45:37.446Z,12.20
2019-03-27T08:50:43.268Z,13.03
2019-03-27T08:55:48.987Z,12.03
2019-03-27T09:00:56.293Z,14.73
2019-03-27T09:06:02.680Z,13.00
2019-03-27T09:11:08.453Z,14.07
2019-03-27T09:16:14.397Z,12.70
2019-03-27T09:21:20.169Z,15.27
2019-03-27T09:26:26.378Z,11.77
2019-03-27T09:31:43.933Z,10.83
2019-03-27T09:36:39.957Z,13.83
2019-03-27T09:41:45.671Z,9.70
2019-03-27T09:46:51.526Z,12.83
2019-03-27T09:51:57.376Z,12.57
2019-03-27T09:57:03.565Z,14.90
2019-03-27T10:02:09.305Z,15.70
2019-03-27T10:07:15.017Z,10.73
2019-03-27T10:12:20.914Z,14.43
2019-03-27T10:17:26.600Z,13.43
2019-03-27T10:22:32.433Z,12.43
2019-03-27T10:27:38.558Z,13.43
2019-03-27T10:32:44.282Z,16.03
2019-03-27T10:37:50.301Z,13.63
2019-03-27T10:42:56.724Z,13.60
2019-03-27T10:48:02.737Z,13.17
2019-03-27T10:53:08.805Z,12.13
2019-03-27T10:58:14.524Z,14.27
2019-03-27T11:03:20.265Z,12.43
2019-03-27T11:08:26.025Z,13.07
2019-03-27T11:13:34.450Z,10.93
2019-03-27T11:18:40.518Z,11.17
2019-03-27T11:23:46.636Z,10.40
2019-03-27T11:28:52.831Z,12.87
2019-03-27T11:33:58.614Z,10.98
2019-03-27T11:39:08.315Z,13.50
2019-03-27T11:44:14.029Z,11.33
2019-03-27T11:49:20.058Z,12.90
2019-03-27T11:54:26.148Z,10.57
2019-03-27T11:59:32.344Z,12.17
2019-03-27T12:04:38.060Z,12.07
2019-03-27T12:09:44.710Z,13.47
2019-03-27T12:14:50.424Z,11.00
2019-03-27T12:19:56.254Z,12.30
2019-03-27T12:25:02.080Z,13.23
2019-03-27T12:30:08.354Z,9.63
2019-03-27T12:35:14.192Z,12.40
2019-03-27T12:40:20.325Z,10.93
2019-03-27T12:45:26.137Z,14.97
2019-03-27T12:50:32.186Z,8.90
2019-03-27T12:55:38.008Z,10.87
2019-03-27T13:00:44.693Z,9.93
2019-03-27T13:05:50.476Z,10.78
2019-03-27T13:10:56.304Z,11.28
2019-03-27T13:16:02.425Z,11.80
2019-03-27T13:21:09.197Z,10.10
2019-03-27T13:26:15.007Z,8.93
2019-03-27T13:31:20.806Z,9.88
2019-03-27T13:36:27.472Z,9.55
2019-03-27T13:41:33.177Z,8.93
2019-03-27T13:46:39.039Z,10.30
2019-03-27T13:51:44.751Z,8.70
2019-03-27T13:56:50.919Z,8.25
2019-03-27T14:01:56.720Z,6.55
2019-03-27T14:07:04.014Z,9.50
2019-03-27T14:12:10.093Z,7.83
2019-03-27T14:17:15.997Z,7.35
2019-03-27T14:22:21.811Z,7.75
2019-03-27T14:27:27.602Z,8.28
2019-03-27T14:32:33.496Z,7.33
2019-03-27T14:37:39.308Z,9.45
2019-03-27T14:42:46.178Z,9.63
2019-03-27T14:47:51.889Z,7.33
2019-03-27T14:52:59.097Z,8.63
2019-03-27T14:58:04.902Z,8.40
2019-03-27T15:03:10.694Z,8.13
2019-03-27T15:08:16.870Z,7.90
2019-03-27T15:13:23.439Z,7.58
2019-03-27T15:18:30.679Z,6.67
2019-03-27T15:23:36.763Z,9.05
2019-03-27T15:28:42.562Z,6.78
2019-03-27T15:33:48.496Z,9.68
2019-03-27T15:38:54.707Z,6.03
2019-03-27T15:44:00.909Z,8.63
2019-03-27T15:49:07.462Z,11.05
2019-03-27T15:54:13.354Z,9.05
2019-03-27T15:59:20.636Z,9.75
2019-03-27T16:04:27.610Z,10.63
2019-03-27T16:09:34.041Z,9.98
2019-03-27T16:14:39.866Z,8.85
2019-03-27T16:19:45.846Z,8.97
2019-03-27T16:24:52.150Z,8.28
2019-03-27T16:29:57.952Z,10.00
2019-03-27T16:35:04.067Z,10.80
2019-03-27T16:40:10.555Z,7.93
2019-03-27T16:45:16.676Z,11.57
2019-03-27T16:50:24.076Z,9.17
2019-03-27T16:55:29.871Z,7.92
2019-03-27T17:00:35.692Z,9.38
2019-03-27T17:05:53.276Z,10.00
2019-03-27T17:10:48.860Z,10.53
2019-03-27T17:15:55.051Z,8.47
2019-03-27T17:21:00.766Z,10.17
2019-03-27T17:26:06.481Z,7.63
2019-03-27T17:31:12.388Z,11.88
2019-03-27T17:36:18.180Z,14.53
2019-03-27T17:41:23.978Z,9.40
2019-03-27T17:46:29.802Z,11.45
2019-03-27T17:51:35.992Z,9.23
2019-03-27T17:56:42.127Z,9.23
2019-03-27T18:01:47.840Z,6.90
2019-03-27T18:06:53.641Z,8.65
2019-03-27T18:11:59.588Z,12.60
2019-03-27T18:17:05.530Z,9.60
2019-03-27T18:22:11.343Z,8.30
2019-03-27T18:27:17.466Z,8.65
2019-03-27T18:32:24.099Z,10.07
2019-03-27T18:37:29.850Z,11.87
2019-03-27T18:42:36.591Z,11.40
2019-03-27T18:47:42.673Z,9.70
2019-03-27T18:52:48.402Z,8.10
2019-03-27T18:58:00.166Z,10.67
2019-03-27T19:03:02.462Z,9.80
2019-03-27T19:08:08.735Z,9.40
2019-03-27T19:13:15.008Z,14.20
2019-03-27T19:18:20.908Z,9.93
2019-03-27T19:23:26.948Z,11.90
2019-03-27T19:28:32.672Z,11.73
2019-03-27T19:33:39.700Z,9.90
2019-03-27T19:38:45.783Z,10.67
2019-03-27T19:43:52.543Z,11.03
2019-03-27T19:49:00.284Z,14.27
2019-03-27T19:54:07.965Z,12.37
2019-03-27T19:59:14.786Z,12.77
2019-03-27T20:04:21.438Z,10.33
2019-03-27T20:09:27.259Z,14.13
2019-03-27T20:14:33.020Z,13.27
2019-03-27T20:19:39.081Z,12.53
2019-03-27T20:24:44.811Z,10.97
2019-03-27T20:29:51.762Z,14.57
2019-03-27T20:34:57.792Z,12.87
2019-03-27T20:40:03.936Z,14.57
2019-03-27T20:45:10.339Z,13.53
2019-03-27T20:50:16.794Z,11.83
2019-03-27T20:55:30.320Z,13.77
2019-03-27T21:00:30.701Z,13.10
2019-03-27T21:05:37.818Z,15.93
2019-03-27T21:10:44.940Z,16.13
2019-03-27T21:15:51.624Z,12.23
2019-03-27T21:20:57.368Z,16.60
2019-03-27T21:26:05.147Z,14.83
2019-03-27T21:31:11.116Z,17.80
2019-03-27T21:36:18.044Z,16.53
2019-03-27T21:41:24.098Z,14.97
2019-03-27T21:46:30.665Z,14.17
2019-03-27T21:51:37.272Z,15.97
2019-03-27T21:56:43.033Z,16.67
2019-03-27T22:01:48.845Z,14.33
2019-03-27T22:06:54.684Z,16.70
2019-03-27T22:12:00.921Z,13.27
2019-03-27T22:17:06.980Z,12.47
2019-03-27T22:22:13.038Z,14.40
2019-03-27T22:27:19.856Z,15.03
2019-03-27T22:32:26.406Z,15.03
2019-03-27T22:37:32.135Z,13.27
2019-03-27T22:42:37.849Z,14.17
2019-03-27T22:47:43.660Z,13.60
2019-03-27T22:52:49.402Z,15.87
2019-03-27T22:57:55.217Z,14.00
2019-03-27T23:03:01.076Z,16.03
2019-03-27T23:08:06.794Z,14.47
2019-03-27T23:13:12.653Z,11.23
2019-03-27T23:18:18.569Z,14.67
2019-03-27T23:23:24.291Z,18.20
2019-03-27T23:28:30.022Z,12.53
2019-03-27T23:33:36.677Z,13.23
2019-03-27T23:38:42.499Z,15.33
2019-03-27T23:43:48.216Z,15.97
2019-03-27T23:48:54.443Z,15.30
2019-03-27T23:54:00.201Z,14.73
2019-03-27T23:59:05.879Z,16.87
